Time;durP1;ratioP1;P1;durP2;ratioP2;P2;SDS_P1;SDS_P2;PMS_P1;PMS_P2;Temp;Humidity;BMP_temperature;BMP_pressure;BME280_temperature;BME280_humidity;BME280_pressure;Samples;Min_cycle;Max_cycle;Signal;HPM_P1;HPM_P2
2022/04/03 00:01:11;;;;;;;9.32;5.47;;;;;;;-1.39;72.83;102297.19;5025168;28;20515;-61
2022/04/03 00:03:37;;;;;;;11.10;5.45;;;;;;;-1.42;72.83;102294.69;5024738;28;20083;-61
2022/04/03 00:06:02;;;;;;;9.65;5.57;;;;;;;-1.44;73.28;102293.97;5024800;28;20037;-62
2022/04/03 00:08:28;;;;;;;10.27;5.30;;;;;;;-1.47;73.95;102286.09;5023814;28;20117;-62
2022/04/03 00:10:53;;;;;;;10.15;5.10;;;;;;;-1.53;74.48;102291.97;5023991;28;20040;-61
2022/04/03 00:13:18;;;;;;;13.07;5.93;;;;;;;-1.57;74.15;102292.22;5024215;28;20121;-61
2022/04/03 00:15:44;;;;;;;10.52;5.47;;;;;;;-1.60;74.21;102287.06;5025509;28;20030;-62
2022/04/03 00:18:09;;;;;;;8.77;5.03;;;;;;;-1.59;74.03;102296.84;5024919;28;20060;-65
2022/04/03 00:20:36;;;;;;;8.15;5.40;;;;;;;-1.61;73.75;102288.03;5024465;28;20033;-62
2022/04/03 00:23:02;;;;;;;11.35;5.15;;;;;;;-1.61;73.64;102293.44;5024354;28;21010;-61
2022/04/03 00:25:27;;;;;;;10.30;6.10;;;;;;;-1.62;73.78;102294.41;5024882;28;20424;-61
2022/04/03 00:27:53;;;;;;;9.43;5.97;;;;;;;-1.62;74.34;102293.56;5023706;28;20045;-62
2022/04/03 00:30:18;;;;;;;11.18;5.80;;;;;;;-1.64;74.23;102296.34;5022203;28;20076;-62
2022/04/03 00:32:43;;;;;;;9.93;5.78;;;;;;;-1.66;74.63;102290.22;5024696;28;20064;-62
2022/04/03 00:35:09;;;;;;;10.13;6.47;;;;;;;-1.70;74.64;102298.66;5024777;28;20589;-61
2022/04/03 00:37:34;;;;;;;11.93;5.72;;;;;;;-1.76;74.78;102305.34;5024665;28;20495;-62
2022/04/03 00:40:00;;;;;;;11.18;5.72;;;;;;;-1.81;75.02;102299.47;5024569;28;20024;-62
2022/04/03 00:42:26;;;;;;;11.82;6.45;;;;;;;-1.87;75.47;102303.47;5022643;28;20129;-61
2022/04/03 00:44:51;;;;;;;9.95;5.72;;;;;;;-1.91;75.38;102298.41;5024910;28;20026;-62
2022/04/03 00:47:18;;;;;;;8.55;6.10;;;;;;;-1.93;75.55;102294.97;5024064;28;20029;-61
2022/04/03 00:49:44;;;;;;;12.85;6.45;;;;;;;-1.93;75.91;102301.22;5024713;28;20647;-62
2022/04/03 00:52:09;;;;;;;11.85;6.13;;;;;;;-1.94;75.95;102293.25;5022648;28;20036;-62
2022/04/03 00:54:35;;;;;;;13.30;6.72;;;;;;;-1.96;75.77;102301.44;5024066;28;20026;-62
2022/04/03 00:57:04;;;;;;;10.15;6.68;;;;;;;-1.95;76.08;102303.16;5022019;28;20028;-62
2022/04/03 00:59:30;;;;;;;10.00;6.13;;;;;;;-1.97;76.03;102296.19;5024701;28;20030;-62
2022/04/03 01:01:55;;;;;;;12.85;6.40;;;;;;;-1.98;75.89;102289.91;5024142;28;20053;-61
2022/04/03 01:04:20;;;;;;;13.13;6.93;;;;;;;-1.96;76.31;102288.00;5017648;28;20036;-62
2022/04/03 01:06:46;;;;;;;13.23;6.63;;;;;;;-1.95;76.21;102296.91;5022074;28;20030;-61
2022/04/03 01:09:11;;;;;;;12.80;6.05;;;;;;;-1.97;76.57;102291.66;5022820;28;20037;-62
2022/04/03 01:11:38;;;;;;;12.63;7.07;;;;;;;-2.01;76.53;102290.16;5020212;28;20068;-61
2022/04/03 01:14:04;;;;;;;11.38;6.80;;;;;;;-2.03;76.60;102293.94;5023075;28;20055;-62
2022/04/03 01:16:30;;;;;;;10.85;6.82;;;;;;;-2.07;77.06;102282.53;5021748;28;20045;-61
2022/04/03 01:18:55;;;;;;;14.00;6.72;;;;;;;-2.09;77.23;102289.84;5023799;28;20040;-62
2022/04/03 01:21:20;;;;;;;10.05;6.90;;;;;;;-2.13;77.21;102294.63;5022371;28;20022;-61
2022/04/03 01:23:46;;;;;;;12.27;7.38;;;;;;;-2.14;76.94;102292.88;5023568;28;20060;-61
2022/04/03 01:26:12;;;;;;;12.70;7.25;;;;;;;-2.15;77.30;102283.09;5022302;28;20057;-62
2022/04/03 01:28:38;;;;;;;12.00;7.00;;;;;;;-2.17;77.00;102293.13;5023569;28;20510;-62
2022/04/03 01:31:04;;;;;;;13.15;7.53;;;;;;;-2.19;77.69;102303.13;5023141;28;20033;-61
2022/04/03 01:33:29;;;;;;;10.27;7.65;;;;;;;-2.23;77.66;102298.06;5023749;28;20033;-61
2022/04/03 01:35:55;;;;;;;14.82;8.20;;;;;;;-2.23;77.94;102290.00;5023512;28;20079;-61
2022/04/03 01:38:20;;;;;;;12.75;7.57;;;;;;;-2.26;77.97;102291.09;5021915;28;20029;-61
2022/04/03 01:40:45;;;;;;;11.70;7.75;;;;;;;-2.27;78.25;102289.41;5022705;28;20101;-62
2022/04/03 01:43:11;;;;;;;13.85;8.70;;;;;;;-2.28;78.38;102289.47;5022972;28;20039;-62
2022/04/03 01:45:37;;;;;;;13.60;8.00;;;;;;;-2.29;78.48;102288.63;5024454;28;20032;-61
2022/04/03 01:48:03;;;;;;;13.90;8.40;;;;;;;-2.31;78.78;102284.34;5021588;28;20037;-62
2022/04/03 01:50:29;;;;;;;13.68;7.88;;;;;;;-2.31;78.64;102279.81;5023389;28;20025;-62
2022/04/03 01:52:54;;;;;;;15.50;9.13;;;;;;;-2.30;78.96;102280.66;5023059;28;20131;-61
2022/04/03 01:55:20;;;;;;;14.80;9.50;;;;;;;-2.30;78.90;102277.97;5022635;28;20033;-61
2022/04/03 01:57:45;;;;;;;15.98;9.77;;;;;;;-2.30;78.74;102281.53;5021681;28;20061;-62
2022/04/03 02:00:11;;;;;;;13.68;9.05;;;;;;;-2.29;78.94;102282.38;5022786;28;20036;-61
2022/04/03 02:02:38;;;;;;;12.60;9.75;;;;;;;-2.30;78.79;102273.47;5023917;28;20025;-62
2022/04/03 02:05:04;;;;;;;15.15;9.48;;;;;;;-2.31;78.49;102269.06;5022470;28;20021;-62
2022/04/03 02:07:30;;;;;;;13.20;9.07;;;;;;;-2.30;79.00;102276.16;5022321;28;20511;-61
2022/04/03 02:09:56;;;;;;;13.38;9.07;;;;;;;-2.29;79.10;102277.88;5022775;28;20026;-61
2022/04/03 02:12:21;;;;;;;14.18;9.32;;;;;;;-2.30;78.97;102276.16;5020384;28;20044;-61
2022/04/03 02:14:47;;;;;;;13.40;9.27;;;;;;;-2.31;79.17;102277.13;5021755;28;20065;-62
2022/04/03 02:17:12;;;;;;;11.45;8.77;;;;;;;-2.35;79.06;102281.00;5022874;28;20025;-61
2022/04/03 02:19:37;;;;;;;13.30;8.40;;;;;;;-2.38;79.46;102283.94;5022557;28;20391;-62
2022/04/03 02:22:03;;;;;;;15.15;8.63;;;;;;;-2.41;79.44;102271.56;5021974;28;20029;-61
2022/04/03 02:24:28;;;;;;;12.93;9.07;;;;;;;-2.44;79.76;102269.06;5023065;28;20025;-61
2022/04/03 02:26:54;;;;;;;13.95;9.38;;;;;;;-2.46;79.67;102276.41;5022499;28;20053;-61
2022/04/03 02:29:19;;;;;;;14.15;8.85;;;;;;;-2.48;79.82;102278.38;5016417;28;20606;-61
2022/04/03 02:31:44;;;;;;;14.02;9.30;;;;;;;-2.53;79.65;102272.47;5022769;28;20112;-63
2022/04/03 02:34:10;;;;;;;16.13;8.63;;;;;;;-2.56;79.94;102275.34;5022702;28;20030;-62
2022/04/03 02:36:35;;;;;;;13.73;9.65;;;;;;;-2.58;80.04;102276.44;5022881;28;20036;-61
2022/04/03 02:39:01;;;;;;;14.30;9.50;;;;;;;-2.61;80.12;102278.38;5021490;28;20095;-61
2022/04/03 02:41:27;;;;;;;15.18;9.05;;;;;;;-2.62;80.50;102275.78;5019783;28;20492;-61
2022/04/03 02:43:52;;;;;;;16.50;9.20;;;;;;;-2.66;80.45;102275.16;5023189;28;20375;-61
2022/04/03 02:46:18;;;;;;;15.40;9.73;;;;;;;-2.68;80.70;102273.56;5022232;28;20083;-61
2022/04/03 02:48:43;;;;;;;16.75;10.27;;;;;;;-2.72;80.74;102275.59;5021091;28;20381;-62
2022/04/03 02:51:08;;;;;;;19.30;9.52;;;;;;;-2.73;81.09;102276.56;5021923;28;20109;-61
2022/04/03 02:53:33;;;;;;;16.15;10.90;;;;;;;-2.77;81.06;102277.75;5022118;28;20469;-61
2022/04/03 02:58:24;;;;;;;21.33;11.70;;;;;;;-2.81;81.31;102280.75;5006062;22;20053;-61
2022/04/03 03:00:49;;;;;;;15.05;10.65;;;;;;;-2.85;81.01;102274.72;5015585;28;20072;-62
2022/04/03 03:03:15;;;;;;;15.25;10.13;;;;;;;-2.87;81.80;102282.91;5002018;28;20038;-62
2022/04/03 03:05:41;;;;;;;16.33;10.70;;;;;;;-2.87;81.73;102282.91;5002619;28;20030;-61
2022/04/03 03:08:07;;;;;;;14.20;9.70;;;;;;;-2.88;81.88;102288.41;5000925;28;20030;-61
2022/04/03 03:10:32;;;;;;;14.63;10.45;;;;;;;-2.92;82.27;102289.59;5008425;28;20466;-61
2022/04/03 03:12:57;;;;;;;17.70;10.57;;;;;;;-2.92;82.33;102289.59;5011793;28;20417;-61
2022/04/03 03:15:23;;;;;;;15.68;10.63;;;;;;;-2.92;82.27;102286.91;5021896;28;20383;-61
2022/04/03 03:17:49;;;;;;;13.65;9.98;;;;;;;-2.96;82.65;102288.06;5022536;28;20063;-61
2022/04/03 03:20:15;;;;;;;16.08;10.10;;;;;;;-2.96;82.73;102288.06;5013785;28;20045;-61
2022/04/03 03:22:40;;;;;;;15.05;11.15;;;;;;;-2.97;82.79;102292.59;5014617;28;20099;-61
2022/04/03 03:25:07;;;;;;;13.25;9.73;;;;;;;-2.94;82.91;102283.44;5026560;28;20523;-62
2022/04/03 03:27:34;;;;;;;16.35;10.20;;;;;;;-2.94;83.04;102291.50;5025098;28;20093;-62
2022/04/03 03:29:59;;;;;;;15.77;10.90;;;;;;;-2.93;83.09;102287.88;5022957;28;20038;-61
2022/04/03 03:32:24;;;;;;;16.02;11.00;;;;;;;-2.93;83.00;102290.56;5025436;28;20028;-61
2022/04/03 03:34:51;;;;;;;19.77;10.13;;;;;;;-2.95;83.02;102289.78;5026172;28;20478;-62
2022/04/03 03:37:16;;;;;;;14.85;10.60;;;;;;;-2.96;83.28;102288.06;5025454;28;20057;-61
2022/04/03 03:39:41;;;;;;;17.25;10.65;;;;;;;-2.96;83.01;102297.00;5008684;28;20060;-61
2022/04/03 03:42:07;;;;;;;16.98;10.73;;;;;;;-2.95;83.00;102293.34;5005529;28;20075;-61
2022/04/03 03:44:32;;;;;;;19.00;11.25;;;;;;;-2.96;82.82;102286.25;5005926;28;20054;-61
2022/04/03 03:46:57;;;;;;;18.55;10.27;;;;;;;-2.92;83.08;102292.28;5006312;28;20479;-61
2022/04/03 03:49:23;;;;;;;18.27;11.23;;;;;;;-2.96;83.10;102290.75;5015932;28;20511;-61
2022/04/03 03:51:48;;;;;;;12.65;9.48;;;;;;;-2.95;83.32;102290.66;5025705;28;20036;-62
2022/04/03 03:54:13;;;;;;;17.15;10.15;;;;;;;-2.98;83.16;102290.88;5025441;28;20033;-62
2022/04/03 03:56:39;;;;;;;15.43;9.68;;;;;;;-3.03;83.00;102284.97;5024642;28;20408;-66
2022/04/03 03:59:05;;;;;;;15.00;10.07;;;;;;;-3.03;83.25;102286.81;5025823;28;20025;-61
2022/04/03 04:01:31;;;;;;;17.67;10.68;;;;;;;-2.99;83.27;102291.84;5017060;28;20111;-62
2022/04/03 04:03:56;;;;;;;17.92;10.23;;;;;;;-2.97;83.46;102286.38;5005936;28;20430;-61
2022/04/03 04:06:21;;;;;;;16.85;10.38;;;;;;;-2.95;83.09;102287.09;5001078;28;20030;-61
2022/04/03 04:08:46;;;;;;;18.65;10.20;;;;;;;-2.95;83.12;102284.41;5005367;28;20067;-61
2022/04/03 04:11:12;;;;;;;14.75;10.05;;;;;;;-2.94;82.88;102288.81;5004431;28;20025;-62
2022/04/03 04:13:37;;;;;;;14.85;10.10;;;;;;;-2.96;82.88;102288.94;5006209;28;20370;-62
2022/04/03 04:16:02;;;;;;;15.23;10.00;;;;;;;-2.96;83.01;102288.94;5003568;28;20022;-61
2022/04/03 04:18:29;;;;;;;16.58;10.15;;;;;;;-2.98;82.92;102290.03;5006321;28;20056;-61
2022/04/03 04:20:54;;;;;;;16.38;10.20;;;;;;;-2.98;82.94;102292.72;5024344;28;20034;-61
2022/04/03 04:23:19;;;;;;;20.35;10.32;;;;;;;-2.99;83.04;102289.16;5023968;28;20060;-61
2022/04/03 04:25:46;;;;;;;17.45;10.57;;;;;;;-2.98;83.14;102290.03;5024577;28;20026;-62
2022/04/03 04:28:11;;;;;;;16.92;10.50;;;;;;;-3.00;83.03;102294.63;5023070;28;20033;-62
2022/04/03 04:30:37;;;;;;;17.67;10.68;;;;;;;-3.05;83.05;102288.72;5013572;28;20034;-62
2022/04/03 04:33:02;;;;;;;15.15;10.40;;;;;;;-3.10;83.25;102289.03;5004707;28;20041;-61
2022/04/03 04:35:28;;;;;;;16.20;10.32;;;;;;;-3.14;83.58;102293.78;5005236;28;20058;-61
2022/04/03 04:37:53;;;;;;;17.98;10.90;;;;;;;-3.15;83.35;102294.72;5004391;28;20473;-61
2022/04/03 04:40:19;;;;;;;16.98;10.35;;;;;;;-3.14;83.38;102295.63;5002825;28;20026;-61
2022/04/03 04:42:44;;;;;;;16.05;10.00;;;;;;;-3.13;83.67;102303.56;5005244;28;20056;-62
2022/04/03 04:45:09;;;;;;;17.10;10.10;;;;;;;-3.12;83.67;102299.03;5004827;28;20049;-65
2022/04/03 04:47:37;;;;;;;16.73;10.40;;;;;;;-3.13;83.84;102311.63;5004222;28;20499;-61
2022/04/03 04:50:07;;;;;;;16.85;9.70;;;;;;;-3.16;83.94;102305.59;4985362;28;20026;-62
2022/04/03 04:52:33;;;;;;;16.40;10.85;;;;;;;-3.22;84.12;102314.06;4996835;28;20108;-61
2022/04/03 04:54:58;;;;;;;15.77;10.20;;;;;;;-3.25;84.40;102311.59;5004040;28;20552;-65
2022/04/03 04:57:23;;;;;;;15.23;10.55;;;;;;;-3.28;84.97;102309.97;5004167;28;20050;-61
2022/04/03 04:59:48;;;;;;;15.73;11.10;;;;;;;-3.29;84.77;102318.16;5021660;28;20025;-61
2022/04/03 05:02:14;;;;;;;15.98;11.15;;;;;;;-3.31;85.02;102314.69;5024173;28;20387;-61
2022/04/03 05:04:39;;;;;;;18.67;10.93;;;;;;;-3.33;84.90;102320.19;5022320;28;20025;-64
2022/04/03 05:07:05;;;;;;;17.23;10.25;;;;;;;-3.31;85.11;102322.75;5003354;28;20033;-62
2022/04/03 05:09:31;;;;;;;17.52;10.75;;;;;;;-3.28;84.87;102330.63;5010846;28;20021;-61
2022/04/03 05:11:57;;;;;;;17.27;10.65;;;;;;;-3.23;84.84;102328.47;5022961;28;20663;-61
2022/04/03 05:14:23;;;;;;;18.63;11.25;;;;;;;-3.20;84.77;102328.25;5022458;28;20033;-61
2022/04/03 05:16:49;;;;;;;19.73;9.70;;;;;;;-3.17;84.54;102320.84;5022417;28;20052;-62
2022/04/03 05:19:14;;;;;;;19.27;11.90;;;;;;;-3.14;84.63;102326.03;5024007;28;20056;-62
2022/04/03 05:21:41;;;;;;;16.35;11.18;;;;;;;-3.10;84.38;102331.16;5023799;28;20033;-62
2022/04/03 05:24:06;;;;;;;19.05;11.70;;;;;;;-3.07;84.44;102334.50;5023441;28;20033;-62
2022/04/03 05:26:31;;;;;;;19.92;11.63;;;;;;;-3.03;84.61;102324.44;5021854;28;20048;-61
2022/04/03 05:28:57;;;;;;;15.75;10.68;;;;;;;-2.97;84.48;102329.38;5015776;28;20030;-61
2022/04/03 05:31:24;;;;;;;21.20;10.48;;;;;;;-2.93;84.45;102334.44;5011787;28;20744;-61
2022/04/03 05:33:49;;;;;;;18.17;10.93;;;;;;;-2.88;84.53;102331.44;5021642;28;20076;-61
2022/04/03 05:36:15;;;;;;;19.35;11.60;;;;;;;-2.81;84.55;102334.53;5002612;28;20021;-61
2022/04/03 05:38:40;;;;;;;16.88;10.88;;;;;;;-2.73;84.59;102335.72;5004305;28;20058;-62
2022/04/03 05:41:05;;;;;;;19.13;12.18;;;;;;;-2.65;84.06;102337.84;5002566;28;20029;-61
2022/04/03 05:43:30;;;;;;;19.77;12.85;;;;;;;-2.54;84.13;102347.84;5003367;28;20058;-62
2022/04/03 05:45:56;;;;;;;22.02;14.52;;;;;;;-2.48;84.06;102336.69;5020165;28;20159;-62
2022/04/03 05:48:21;;;;;;;22.58;14.25;;;;;;;-2.41;84.04;102344.19;5023479;28;20466;-61
2022/04/03 05:50:46;;;;;;;21.17;14.38;;;;;;;-2.33;83.99;102334.69;5023353;28;20025;-61
2022/04/03 05:53:12;;;;;;;21.30;14.98;;;;;;;-2.23;84.00;102346.53;5022794;28;20025;-62
2022/04/03 05:55:37;;;;;;;20.95;14.10;;;;;;;-2.15;84.02;102342.31;5023142;28;20049;-62
2022/04/03 05:58:02;;;;;;;21.23;13.65;;;;;;;-2.03;84.18;102343.25;5005850;28;20543;-62
2022/04/03 06:00:29;;;;;;;18.52;12.05;;;;;;;-1.94;83.65;102342.56;5002692;28;20104;-62
2022/04/03 06:03:00;;;;;;;20.63;12.55;;;;;;;-1.81;83.72;102349.75;5003217;28;20057;-62
2022/04/03 06:05:35;;;;;;;16.15;11.57;;;;;;;-1.71;82.89;102348.97;5003087;28;20034;-62
2022/04/03 06:08:01;;;;;;;19.83;12.32;;;;;;;-1.62;83.18;102350.97;5002645;28;20077;-62
2022/04/03 06:10:27;;;;;;;25.55;13.95;;;;;;;-1.49;82.66;102352.75;5016243;28;20033;-61
2022/04/03 06:12:53;;;;;;;20.25;12.43;;;;;;;-1.35;82.04;102360.66;5023002;28;20037;-62
2022/04/03 06:15:19;;;;;;;21.65;13.43;;;;;;;-1.23;82.11;102346.22;5022436;28;20061;-61
2022/04/03 06:17:47;;;;;;;21.60;12.80;;;;;;;-1.11;81.70;102344.44;5019416;28;20022;-62
2022/04/03 06:20:12;;;;;;;21.65;13.52;;;;;;;-0.99;81.41;102350.72;4983700;28;20157;-62
2022/04/03 06:22:37;;;;;;;22.40;14.23;;;;;;;-0.90;81.21;102347.31;4983189;28;20125;-61
2022/04/03 06:25:03;;;;;;;22.27;13.25;;;;;;;-0.80;80.66;102342.94;4982896;28;20038;-62
2022/04/03 06:27:28;;;;;;;22.73;13.98;;;;;;;-0.71;80.28;102338.63;4993361;28;20041;-62
2022/04/03 06:29:53;;;;;;;21.05;13.32;;;;;;;-0.67;79.62;102342.81;5003539;28;20030;-61
2022/04/03 06:32:19;;;;;;;24.42;13.85;;;;;;;-0.65;79.07;102340.88;5001406;28;20037;-62
2022/04/03 06:34:44;;;;;;;22.52;14.93;;;;;;;-0.62;79.43;102343.31;5000162;28;20045;-62
2022/04/03 06:37:09;;;;;;;23.05;14.43;;;;;;;-0.58;79.68;102344.78;5009471;28;20052;-63
2022/04/03 06:39:35;;;;;;;22.70;13.88;;;;;;;-0.54;79.44;102341.72;5023213;28;20052;-61
2022/04/03 06:42:00;;;;;;;25.92;14.75;;;;;;;-0.50;79.78;102344.19;5021825;28;20026;-62
2022/04/03 06:44:26;;;;;;;28.25;17.33;;;;;;;-0.50;79.71;102341.50;5021632;28;20068;-62
2022/04/03 06:46:51;;;;;;;46.47;22.42;;;;;;;-0.47;79.63;102346.63;5023266;28;20357;-63
2022/04/03 06:49:17;;;;;;;59.53;27.60;;;;;;;-0.43;79.31;102348.09;5020253;28;20076;-62
2022/04/03 06:51:42;;;;;;;60.22;28.92;;;;;;;-0.43;79.25;102348.09;5001837;28;20435;-62
2022/04/03 06:54:08;;;;;;;76.68;35.00;;;;;;;-0.42;79.62;102352.53;5003865;28;20361;-62
2022/04/03 06:56:33;;;;;;;76.30;36.50;;;;;;;-0.37;79.58;102356.56;5003322;28;20188;-62
2022/04/03 06:58:58;;;;;;;88.57;38.65;;;;;;;-0.40;79.26;102346.03;5004782;28;20033;-67
2022/04/03 07:01:23;;;;;;;91.82;38.45;;;;;;;-0.29;79.73;102355.97;5012377;28;20030;-62
2022/04/03 07:03:50;;;;;;;89.18;38.75;;;;;;;0.14;79.58;102347.06;5016462;28;20049;-62
2022/04/03 07:06:15;;;;;;;74.40;35.15;;;;;;;0.98;77.75;102354.38;5002102;28;20548;-62
2022/04/03 07:08:41;;;;;;;52.55;25.98;;;;;;;1.74;74.07;102348.72;5007055;28;20088;-62
2022/04/03 07:11:06;;;;;;;39.25;22.38;;;;;;;1.91;73.12;102345.34;5020486;28;20120;-62
2022/04/03 07:13:32;;;;;;;37.95;20.95;;;;;;;2.28;72.52;102344.72;5022260;28;20106;-62
2022/04/03 07:15:57;;;;;;;35.40;19.30;;;;;;;2.88;70.71;102339.19;5026164;28;20025;-63
2022/04/03 07:18:22;;;;;;;32.17;18.67;;;;;;;3.52;68.63;102331.22;5026105;28;20130;-64
2022/04/03 07:20:48;;;;;;;28.48;17.83;;;;;;;3.74;67.18;102326.41;5025457;28;20033;-63
2022/04/03 07:23:13;;;;;;;32.72;18.35;;;;;;;3.68;67.79;102337.88;5003868;28;20077;-62
2022/04/03 07:25:38;;;;;;;27.95;17.00;;;;;;;3.63;67.84;102339.19;5009177;28;20423;-62
2022/04/03 07:28:04;;;;;;;24.80;15.70;;;;;;;3.82;67.58;102335.53;5006385;28;20028;-62
2022/04/03 07:30:29;;;;;;;25.83;17.42;;;;;;;4.37;67.25;102335.50;5004684;28;20041;-62
2022/04/03 07:32:54;;;;;;;21.73;15.48;;;;;;;5.43;64.26;102335.56;5011371;28;20040;-62
2022/04/03 07:35:19;;;;;;;24.60;16.33;;;;;;;6.55;62.05;102331.81;5008574;28;20520;-62
2022/04/03 07:37:45;;;;;;;19.70;13.25;;;;;;;7.49;58.08;102334.00;5006007;28;20034;-62
2022/04/03 07:40:11;;;;;;;18.80;13.52;;;;;;;7.78;57.13;102337.00;5005164;28;20022;-63
2022/04/03 07:42:39;;;;;;;21.15;11.90;;;;;;;8.55;54.39;102339.91;5005984;28;20033;-62
2022/04/03 07:45:05;;;;;;;16.87;11.50;;;;;;;9.62;53.27;102337.13;5003943;28;20041;-62
2022/04/03 07:47:30;;;;;;;17.92;11.65;;;;;;;10.16;49.35;102349.72;5007828;28;20055;-62
2022/04/03 07:49:56;;;;;;;16.90;10.10;;;;;;;9.73;49.66;102350.41;5023858;28;20472;-62
2022/04/03 07:52:21;;;;;;;16.80;10.70;;;;;;;9.45;50.62;102341.94;5025168;28;20373;-62
2022/04/03 07:54:46;;;;;;;21.25;11.10;;;;;;;9.39;51.60;102341.84;5009276;28;20037;-62
2022/04/03 07:57:12;;;;;;;20.23;11.52;;;;;;;8.97;51.42;102344.09;5004514;28;20068;-62
2022/04/03 07:59:37;;;;;;;15.48;9.05;;;;;;;8.44;51.82;102336.75;4985413;28;20041;-62
2022/04/03 08:02:03;;;;;;;16.25;10.48;;;;;;;8.82;52.11;102351.41;4986347;28;20033;-62
2022/04/03 08:04:28;;;;;;;16.65;9.88;;;;;;;8.90;51.78;102345.84;4985756;28;20121;-62
2022/04/03 08:06:54;;;;;;;14.13;8.88;;;;;;;8.80;51.05;102353.44;4985365;28;20026;-61
2022/04/03 08:09:20;;;;;;;11.93;8.07;;;;;;;8.52;50.77;102347.66;4986161;28;20493;-62
2022/04/03 08:11:46;;;;;;;14.30;7.13;;;;;;;8.05;51.67;102352.13;5007731;28;20029;-62
2022/04/03 08:14:11;;;;;;;13.30;7.30;;;;;;;7.66;53.15;102360.28;5005121;28;20408;-62
2022/04/03 08:16:36;;;;;;;13.48;7.10;;;;;;;7.54;53.94;102354.31;5004855;28;20022;-61
2022/04/03 08:19:03;;;;;;;11.82;6.15;;;;;;;7.31;53.14;102349.78;5005113;28;20021;-62
2022/04/03 08:21:29;;;;;;;11.20;5.70;;;;;;;7.15;54.07;102350.63;5004106;28;20536;-62
2022/04/03 08:23:55;;;;;;;13.80;5.63;;;;;;;6.98;54.61;102355.22;5004089;28;20130;-61
2022/04/03 08:26:25;;;;;;;8.13;4.38;;;;;;;6.91;54.80;102359.66;5014085;28;20603;-62
2022/04/03 08:28:51;;;;;;;11.00;4.70;;;;;;;7.03;55.08;102348.22;5023382;28;20476;-62
2022/04/03 08:31:16;;;;;;;8.57;4.03;;;;;;;7.10;54.18;102353.88;5024464;28;20031;-62
2022/04/03 08:33:41;;;;;;;9.25;4.03;;;;;;;7.24;52.68;102353.16;5024379;28;20107;-62
2022/04/03 08:36:07;;;;;;;7.72;3.80;;;;;;;7.73;51.51;102355.81;5012598;28;20037;-62
2022/04/03 08:38:32;;;;;;;12.00;4.65;;;;;;;8.67;51.13;102354.06;5004278;28;20026;-62
2022/04/03 08:41:00;;;;;;;8.52;4.15;;;;;;;9.92;46.54;102348.13;5003522;28;20052;-62
2022/04/03 08:43:28;;;;;;;8.55;3.50;;;;;;;11.19;44.25;102357.63;5004626;28;20060;-62
2022/04/03 08:45:53;;;;;;;10.40;4.70;;;;;;;12.09;41.46;102350.47;5003558;28;20038;-62
2022/04/03 08:48:21;;;;;;;9.30;4.40;;;;;;;12.63;39.84;102344.13;5004097;28;20092;-62
2022/04/03 08:50:50;;;;;;;7.72;3.70;;;;;;;13.13;39.59;102351.00;5012381;28;20033;-62
2022/04/03 08:53:15;;;;;;;9.63;4.40;;;;;;;13.60;38.95;102351.03;5024203;28;20036;-62
2022/04/03 08:55:41;;;;;;;9.88;4.25;;;;;;;13.62;37.54;102354.41;5024152;28;20030;-62
2022/04/03 08:58:06;;;;;;;8.18;4.40;;;;;;;13.61;37.68;102349.97;5017319;28;20048;-63
2022/04/03 09:00:32;;;;;;;9.77;3.97;;;;;;;13.71;38.12;102350.38;5005901;28;20013;-62
2022/04/03 09:02:58;;;;;;;7.03;3.47;;;;;;;14.71;38.26;102351.75;5024742;28;20369;-62
2022/04/03 09:05:34;;;;;;;8.80;3.63;;;;;;;14.23;37.08;102354.06;5024430;28;20025;-62
2022/04/03 09:08:01;;;;;;;11.27;4.85;;;;;;;12.82;39.07;102354.34;5021588;28;20475;-62
2022/04/03 09:10:26;;;;;;;9.43;3.95;;;;;;;11.65;39.90;102359.91;5023860;28;20068;-62
2022/04/03 09:12:52;;;;;;;10.23;3.65;;;;;;;11.21;42.49;102355.56;5024194;28;20079;-62
2022/04/03 09:15:19;;;;;;;9.20;3.63;;;;;;;10.72;43.33;102359.09;5024077;28;20107;-62
2022/04/03 09:17:52;;;;;;;9.37;4.37;;;;;;;10.36;44.11;102359.94;5021703;28;20029;-62
2022/04/03 09:20:30;;;;;;;6.78;3.40;;;;;;;10.16;45.32;102356.06;4984611;28;20037;-62
2022/04/03 09:22:59;;;;;;;9.13;4.40;;;;;;;10.69;43.38;102350.38;4984663;28;20109;-62
2022/04/03 09:25:32;;;;;;;9.48;5.18;;;;;;;13.04;40.20;102340.38;4984074;28;20117;-62
2022/04/03 09:28:00;;;;;;;8.52;4.00;;;;;;;15.51;36.90;102337.28;4984394;28;20029;-62
2022/04/03 09:30:29;;;;;;;;;;;;;;;17.14;36.53;102335.72;5037157;28;20025;-64
2022/04/03 09:32:57;;;;;;;8.05;4.07;;;;;;;18.04;31.64;102335.38;5023680;28;19913;-62
2022/04/03 09:35:27;;;;;;;9.48;3.08;;;;;;;18.74;29.74;102337.97;5023098;28;20030;-61
2022/04/03 09:38:15;;;;;;;7.03;3.15;;;;;;;19.31;31.08;102340.69;5100207;27;20416;-63
2022/04/03 09:40:41;;;;;;;8.23;3.00;;;;;;;18.31;28.23;102333.78;5092912;28;20029;-62
2022/04/03 09:43:32;;;;;;;7.30;3.53;;;;;;;17.18;31.82;102336.91;5080591;28;20028;-62
2022/04/03 09:46:04;;;;;;;5.78;2.88;;;;;;;17.59;29.80;102330.47;5080066;28;20371;-62
2022/04/03 09:48:43;;;;;;;7.15;2.80;;;;;;;16.45;30.54;102326.88;5080484;28;20055;-63
2022/04/03 09:51:26;;;;;;;8.07;2.72;;;;;;;17.93;31.27;102323.19;5087173;28;20028;-63
2022/04/03 09:54:01;;;;;;;8.30;3.00;;;;;;;18.80;29.25;102313.88;5080163;28;20024;-62
2022/04/03 09:56:37;;;;;;;7.75;3.10;;;;;;;19.51;28.38;102320.66;5079181;28;20429;-62
2022/04/03 09:59:08;;;;;;;6.40;2.75;;;;;;;20.56;26.16;102316.00;5090713;28;20077;-62
2022/04/03 10:01:40;;;;;;;9.68;2.58;;;;;;;19.60;27.03;102315.53;5086381;28;20475;-62
2022/04/03 10:04:08;;;;;;;7.57;2.63;;;;;;;18.47;26.55;102312.66;5079861;28;20023;-62
2022/04/03 10:06:34;;;;;;;7.90;2.60;;;;;;;16.94;29.10;102309.13;5081579;28;20032;-62
2022/04/03 10:09:01;;;;;;;7.85;2.08;;;;;;;14.88;30.17;102316.09;5089232;28;20032;-62
2022/04/03 10:11:27;;;;;;;7.68;2.47;;;;;;;13.64;31.37;102313.66;5099193;28;20185;-62
2022/04/03 10:13:53;;;;;;;6.13;2.70;;;;;;;13.75;34.21;102310.22;5098953;28;20072;-62
2022/04/03 10:16:20;;;;;;;7.68;2.78;;;;;;;14.95;34.48;102305.84;5100068;27;20028;-62
2022/04/03 10:18:47;;;;;;;6.95;2.40;;;;;;;14.85;33.49;102302.72;5098834;28;20547;-62
2022/04/03 10:21:19;;;;;;;3.63;2.20;;;;;;;15.76;31.60;102290.19;5099304;28;20032;-62
2022/04/03 10:23:46;;;;;;;4.85;2.58;;;;;;;15.75;31.02;102294.03;5100068;28;20024;-62
2022/04/03 10:26:15;;;;;;;4.60;2.10;;;;;;;16.53;28.97;102282.19;5098767;28;20078;-63
2022/04/03 10:28:47;;;;;;;7.10;2.53;;;;;;;15.85;29.42;102293.50;5098643;28;20035;-62
2022/04/03 10:31:15;;;;;;;6.55;2.20;;;;;;;15.99;31.06;102292.28;5099384;28;20080;-62
2022/04/03 10:33:43;;;;;;;6.00;2.10;;;;;;;17.85;29.94;102281.91;5100073;28;20481;-62
2022/04/03 10:36:10;;;;;;;6.25;2.10;;;;;;;19.73;26.20;102278.94;5092678;28;20050;-62
2022/04/03 10:38:43;;;;;;;4.72;2.50;;;;;;;18.51;28.28;102283.25;5092314;28;20027;-62
2022/04/03 10:41:26;;;;;;;5.82;2.70;;;;;;;16.65;30.73;102287.78;5092426;28;20032;-63
2022/04/03 10:44:10;;;;;;;8.45;3.17;;;;;;;14.64;32.77;102292.00;5099172;28;20063;-64
2022/04/03 10:47:01;;;;;;;9.77;3.20;;;;;;;13.29;35.71;102289.06;5091075;28;20093;-63
2022/04/03 10:49:39;;;;;;;9.02;3.30;;;;;;;11.64;37.69;102287.50;5079886;28;20118;-63
2022/04/03 10:52:06;;;;;;;9.45;3.28;;;;;;;10.54;39.68;102288.09;5071998;28;20028;-62
2022/04/03 10:54:41;;;;;;;7.53;2.95;;;;;;;10.30;41.57;102286.56;5084883;28;20103;-62
2022/04/03 10:57:40;;;;;;;7.18;3.17;;;;;;;10.28;41.09;102283.13;5085558;28;20037;-62
2022/04/03 11:00:17;;;;;;;8.68;3.58;;;;;;;10.52;42.84;102278.34;5084931;28;20474;-63
2022/04/03 11:02:59;;;;;;;6.78;2.78;;;;;;;10.47;41.07;102278.06;5071728;28;20028;-64
2022/04/03 11:05:26;;;;;;;4.50;2.28;;;;;;;10.14;43.16;102281.28;5085299;28;20123;-63
2022/04/03 11:08:01;;;;;;;6.78;2.28;;;;;;;9.84;42.61;102275.84;5081679;28;20634;-62
2022/04/03 11:10:57;;;;;;;7.00;2.80;;;;;;;9.56;43.51;102278.38;5084825;28;20024;-62
2022/04/03 11:13:28;;;;;;;5.30;2.40;;;;;;;9.36;44.62;102269.00;5085108;28;20607;-63
2022/04/03 11:15:57;;;;;;;8.27;2.22;;;;;;;9.35;43.37;102270.06;5086381;28;20081;-63
2022/04/03 11:18:33;;;;;;;5.85;1.92;;;;;;;9.15;41.34;102268.91;5084930;28;20493;-63